Terminal Aerodrome Forecast
Issued by NWS

Home | Current Version | Previous Version | Text Only | Print | Product List | Glossary On
Versions: 1 2 3 4 5 6 7 8 9 10 11 12 13 14 15 16 17 18 19 20 21 22
000
FTUS43 KGRR 210400 AAB
TAFJXN
TAF AMD
KJXN 210421Z 2104/2124 VRB03KT P6SM -SN BKN035
     FM210600 19003KT 4SM BR OVC015
     FM211800 19007KT P6SM OVC050=

USA.gov is the U.S. government's official web portal to all federal, state and local government web resources and services.